Stanwood, Michigan
Current Conditions -  °F | °C
As of 12:55 PM on Tuesday 21 Oct 2014 (Local Time) from KRQB Reporting Station
Overcast Overcast  
Wind Chill: 41°   Ceiling: 2300
Heat Index: 45°   Visibility: 10mi
Dew Point: 40°   Wind: 8mph
Humidity: 83%   Direction: 20°NNE
Pressure: 30.14"   Gusts: NA
Location:  43.58°N, 85.45°W
Report Text: KRQB 211655Z AUTO 02007KT 10SM OVC023 07/05 A3014 RMK AO2 T00730046
Loading
Personal Weather Stations






























Interactive Weather Map New forecast layout! Learn more

10-Day Weather Forecast

Advertisements
Track Severe Weather on mobile